sensor_id;sensor_type;location;lat;lon;timestamp;pressure;altitude;pressure_sealevel;temperature;humidity
4149;BME280;2088;51.032;7.082;2022-10-17T00:00:13;49186.38;;;-142.28;100.00
4149;BME280;2088;51.032;7.082;2022-10-17T00:02:40;49178.63;;;-142.28;100.00
4149;BME280;2088;51.032;7.082;2022-10-17T00:05:06;49147.66;;;-142.28;100.00
4149;BME280;2088;51.032;7.082;2022-10-17T00:07:33;49134.13;;;-142.28;100.00
4149;BME280;2088;51.032;7.082;2022-10-17T00:10:00;49132.19;;;-142.28;100.00
4149;BME280;2088;51.032;7.082;2022-10-17T00:12:26;49118.63;;;-142.28;100.00
4149;BME280;2088;51.032;7.082;2022-10-17T00:14:54;49083.78;;;-142.28;100.00
4149;BME280;2088;51.032;7.082;2022-10-17T00:17:20;49120.56;;;-142.28;100.00
4149;BME280;2088;51.032;7.082;2022-10-17T00:19:47;49095.41;;;-142.28;100.00
4149;BME280;2088;51.032;7.082;2022-10-17T00:22:13;49085.72;;;-142.28;100.00
4149;BME280;2088;51.032;7.082;2022-10-17T00:24:40;49035.38;;;-142.28;100.00
4149;BME280;2088;51.032;7.082;2022-10-17T00:27:06;49041.19;;;-142.28;100.00
4149;BME280;2088;51.032;7.082;2022-10-17T00:29:33;49031.53;;;-142.28;100.00
4149;BME280;2088;51.032;7.082;2022-10-17T00:32:00;49017.97;;;-142.28;100.00
4149;BME280;2088;51.032;7.082;2022-10-17T00:34:28;49000.53;;;-142.28;100.00
4149;BME280;2088;51.032;7.082;2022-10-17T00:36:55;49021.84;;;-142.28;100.00
4149;BME280;2088;51.032;7.082;2022-10-17T00:39:21;48981.19;;;-142.28;100.00
4149;BME280;2088;51.032;7.082;2022-10-17T00:41:48;48983.13;;;-142.28;100.00
4149;BME280;2088;51.032;7.082;2022-10-17T00:47:21;48961.84;;;-142.28;100.00
4149;BME280;2088;51.032;7.082;2022-10-17T00:49:48;48965.72;;;-142.28;100.00
4149;BME280;2088;51.032;7.082;2022-10-17T00:52:16;48934.72;;;-142.28;100.00
4149;BME280;2088;51.032;7.082;2022-10-17T00:54:48;48936.66;;;-142.28;100.00
4149;BME280;2088;51.032;7.082;2022-10-17T00:57:18;48942.47;;;-142.28;100.00
4149;BME280;2088;51.032;7.082;2022-10-17T00:59:47;48959.91;;;-142.28;100.00
4149;BME280;2088;51.032;7.082;2022-10-17T01:02:17;48930.88;;;-142.28;100.00
4149;BME280;2088;51.032;7.082;2022-10-17T01:04:47;48956.03;;;-142.28;100.00
4149;BME280;2088;51.032;7.082;2022-10-17T01:07:14;48925.06;;;-142.28;100.00
4149;BME280;2088;51.032;7.082;2022-10-17T01:09:41;48952.16;;;-142.28;100.00
4149;BME280;2088;51.032;7.082;2022-10-17T01:12:16;48948.28;;;-142.28;100.00
4149;BME280;2088;51.032;7.082;2022-10-17T01:14:50;48954.09;;;-142.28;100.00
4149;BME280;2088;51.032;7.082;2022-10-17T01:17:24;48919.25;;;-142.28;100.00
4149;BME280;2088;51.032;7.082;2022-10-17T01:20:14;48957.97;;;-142.28;100.00
4149;BME280;2088;51.032;7.082;2022-10-17T01:22:48;48948.28;;;-142.28;100.00
4149;BME280;2088;51.032;7.082;2022-10-17T01:25:28;48923.13;;;-142.28;100.00
4149;BME280;2088;51.032;7.082;2022-10-17T01:28:17;48938.59;;;-142.28;100.00
4149;BME280;2088;51.032;7.082;2022-10-17T01:31:03;48919.25;;;-142.28;100.00
4149;BME280;2088;51.032;7.082;2022-10-17T01:33:47;48923.13;;;-142.28;100.00
4149;BME280;2088;51.032;7.082;2022-10-17T01:36:25;48942.47;;;-142.28;100.00
4149;BME280;2088;51.032;7.082;2022-10-17T01:38:59;48921.19;;;-142.28;100.00
4149;BME280;2088;51.032;7.082;2022-10-17T01:41:34;48907.63;;;-142.28;100.00
4149;BME280;2088;51.032;7.082;2022-10-17T01:44:08;48930.88;;;-142.28;100.00
4149;BME280;2088;51.032;7.082;2022-10-17T01:46:40;48911.50;;;-142.28;100.00
4149;BME280;2088;51.032;7.082;2022-10-17T01:49:10;48919.25;;;-142.28;100.00
4149;BME280;2088;51.032;7.082;2022-10-17T01:51:42;48911.50;;;-142.28;100.00
4149;BME280;2088;51.032;7.082;2022-10-17T01:54:15;48917.31;;;-142.28;100.00
4149;BME280;2088;51.032;7.082;2022-10-17T01:56:44;48934.72;;;-142.28;100.00
4149;BME280;2088;51.032;7.082;2022-10-17T01:59:16;48923.13;;;-142.28;100.00
4149;BME280;2088;51.032;7.082;2022-10-17T02:01:50;48946.34;;;-142.28;100.00
4149;BME280;2088;51.032;7.082;2022-10-17T02:04:18;48923.13;;;-142.28;100.00
4149;BME280;2088;51.032;7.082;2022-10-17T02:06:44;48913.44;;;-142.28;100.00
4149;BME280;2088;51.032;7.082;2022-10-17T02:09:19;48913.44;;;-142.28;100.00
4149;BME280;2088;51.032;7.082;2022-10-17T02:11:58;48915.38;;;-142.28;100.00
4149;BME280;2088;51.032;7.082;2022-10-17T02:14:40;48917.31;;;-142.28;100.00
4149;BME280;2088;51.032;7.082;2022-10-17T02:17:15;48909.56;;;-142.28;100.00
4149;BME280;2088;51.032;7.082;2022-10-17T02:19:54;48878.59;;;-142.28;100.00
4149;BME280;2088;51.032;7.082;2022-10-17T02:22:29;48927.00;;;-142.28;100.00
4149;BME280;2088;51.032;7.082;2022-10-17T02:25:07;48872.78;;;-142.28;100.00
4149;BME280;2088;51.032;7.082;2022-10-17T02:27:42;48870.84;;;-142.28;100.00
4149;BME280;2088;51.032;7.082;2022-10-17T02:30:12;48863.13;;;-142.28;100.00
4149;BME280;2088;51.032;7.082;2022-10-17T02:32:47;48855.38;;;-142.28;100.00
4149;BME280;2088;51.032;7.082;2022-10-17T02:35:16;48857.31;;;-142.28;100.00
4149;BME280;2088;51.032;7.082;2022-10-17T02:37:46;48876.66;;;-142.28;100.00
4149;BME280;2088;51.032;7.082;2022-10-17T02:40:14;48847.63;;;-142.28;100.00
4149;BME280;2088;51.032;7.082;2022-10-17T02:42:43;48841.81;;;-142.28;100.00
4149;BME280;2088;51.032;7.082;2022-10-17T02:45:13;48851.50;;;-142.28;100.00
4149;BME280;2088;51.032;7.082;2022-10-17T02:47:47;48874.72;;;-142.28;100.00
4149;BME280;2088;51.032;7.082;2022-10-17T02:50:17;48843.75;;;-142.28;100.00
4149;BME280;2088;51.032;7.082;2022-10-17T02:52:50;48865.06;;;-142.28;100.00
4149;BME280;2088;51.032;7.082;2022-10-17T02:55:24;48861.19;;;-142.28;100.00
4149;BME280;2088;51.032;7.082;2022-10-17T02:57:56;48841.81;;;-142.28;100.00
4149;BME280;2088;51.032;7.082;2022-10-17T03:00:25;48830.22;;;-142.28;100.00
4149;BME280;2088;51.032;7.082;2022-10-17T03:02:55;48837.94;;;-142.28;100.00
4149;BME280;2088;51.032;7.082;2022-10-17T03:05:23;48839.88;;;-142.28;100.00
4149;BME280;2088;51.032;7.082;2022-10-17T03:07:50;48853.44;;;-142.28;100.00
4149;BME280;2088;51.032;7.082;2022-10-17T03:10:17;48834.09;;;-142.28;100.00
4149;BME280;2088;51.032;7.082;2022-10-17T03:12:43;48836.03;;;-142.28;100.00
4149;BME280;2088;51.032;7.082;2022-10-17T03:15:10;48814.72;;;-142.28;100.00
4149;BME280;2088;51.032;7.082;2022-10-17T03:17:37;48839.88;;;-142.28;100.00
4149;BME280;2088;51.032;7.082;2022-10-17T03:20:06;48828.28;;;-142.28;100.00
4149;BME280;2088;51.032;7.082;2022-10-17T03:22:33;48816.66;;;-142.28;100.00
4149;BME280;2088;51.032;7.082;2022-10-17T03:24:59;48814.72;;;-142.28;100.00
4149;BME280;2088;51.032;7.082;2022-10-17T03:27:26;48803.13;;;-142.28;100.00
4149;BME280;2088;51.032;7.082;2022-10-17T03:29:52;48828.28;;;-142.28;100.00
4149;BME280;2088;51.032;7.082;2022-10-17T03:32:19;48808.91;;;-142.28;100.00
4149;BME280;2088;51.032;7.082;2022-10-17T03:34:45;48836.03;;;-142.28;100.00
4149;BME280;2088;51.032;7.082;2022-10-17T03:37:13;48826.34;;;-142.28;100.00
4149;BME280;2088;51.032;7.082;2022-10-17T03:39:39;48828.28;;;-142.28;100.00
4149;BME280;2088;51.032;7.082;2022-10-17T03:42:06;48806.97;;;-142.28;100.00
4149;BME280;2088;51.032;7.082;2022-10-17T03:44:32;48787.63;;;-142.28;100.00
4149;BME280;2088;51.032;7.082;2022-10-17T03:46:59;48795.38;;;-142.28;100.00
4149;BME280;2088;51.032;7.082;2022-10-17T03:49:25;48810.84;;;-142.28;100.00
4149;BME280;2088;51.032;7.082;2022-10-17T03:51:52;48805.03;;;-142.28;100.00
4149;BME280;2088;51.032;7.082;2022-10-17T03:54:19;48808.91;;;-142.28;100.00
4149;BME280;2088;51.032;7.082;2022-10-17T03:56:46;48774.06;;;-142.28;100.00
4149;BME280;2088;51.032;7.082;2022-10-17T03:59:13;48789.56;;;-142.28;100.00
4149;BME280;2088;51.032;7.082;2022-10-17T04:01:40;48806.97;;;-142.28;100.00
4149;BME280;2088;51.032;7.082;2022-10-17T04:04:07;48808.91;;;-142.28;100.00
4149;BME280;2088;51.032;7.082;2022-10-17T04:06:34;48832.16;;;-142.28;100.00
4149;BME280;2088;51.032;7.082;2022-10-17T04:09:02;48793.44;;;-142.28;100.00
4149;BME280;2088;51.032;7.082;2022-10-17T04:11:30;48795.38;;;-142.28;100.00
4149;BME280;2088;51.032;7.082;2022-10-17T04:13:56;48789.56;;;-142.28;100.00
4149;BME280;2088;51.032;7.082;2022-10-17T04:16:24;48806.97;;;-142.28;100.00
4149;BME280;2088;51.032;7.082;2022-10-17T04:18:52;48791.50;;;-142.28;100.00
4149;BME280;2088;51.032;7.082;2022-10-17T04:21:19;48799.25;;;-142.28;100.00
4149;BME280;2088;51.032;7.082;2022-10-17T04:23:46;48799.25;;;-142.28;100.00
4149;BME280;2088;51.032;7.082;2022-10-17T04:26:12;48810.84;;;-142.28;100.00
4149;BME280;2088;51.032;7.082;2022-10-17T04:28:40;48768.28;;;-142.28;100.00
4149;BME280;2088;51.032;7.082;2022-10-17T04:31:10;48783.75;;;-142.28;100.00
4149;BME280;2088;51.032;7.082;2022-10-17T04:33:37;48752.78;;;-142.28;100.00
4149;BME280;2088;51.032;7.082;2022-10-17T04:36:06;48770.22;;;-142.28;100.00
4149;BME280;2088;51.032;7.082;2022-10-17T04:38:33;48752.78;;;-142.28;100.00
4149;BME280;2088;51.032;7.082;2022-10-17T04:41:01;48787.63;;;-142.28;100.00
4149;BME280;2088;51.032;7.082;2022-10-17T04:43:28;48760.53;;;-142.28;100.00
4149;BME280;2088;51.032;7.082;2022-10-17T04:45:58;48791.50;;;-142.28;100.00
4149;BME280;2088;51.032;7.082;2022-10-17T04:48:25;48781.81;;;-142.28;100.00
4149;BME280;2088;51.032;7.082;2022-10-17T04:50:52;48787.63;;;-142.28;100.00
4149;BME280;2088;51.032;7.082;2022-10-17T04:53:19;48750.84;;;-142.28;100.00
4149;BME280;2088;51.032;7.082;2022-10-17T04:55:46;48774.06;;;-142.28;100.00
4149;BME280;2088;51.032;7.082;2022-10-17T04:58:12;48766.34;;;-142.28;100.00
4149;BME280;2088;51.032;7.082;2022-10-17T05:00:39;48776.00;;;-142.28;100.00
4149;BME280;2088;51.032;7.082;2022-10-17T05:03:07;48791.50;;;-142.28;100.00
4149;BME280;2088;51.032;7.082;2022-10-17T05:05:36;48758.59;;;-142.28;100.00
4149;BME280;2088;51.032;7.082;2022-10-17T05:08:02;48776.00;;;-142.28;100.00
4149;BME280;2088;51.032;7.082;2022-10-17T05:10:29;48762.47;;;-142.28;100.00
4149;BME280;2088;51.032;7.082;2022-10-17T05:12:55;48787.63;;;-142.28;100.00
4149;BME280;2088;51.032;7.082;2022-10-17T05:15:22;48789.56;;;-142.28;100.00
4149;BME280;2088;51.032;7.082;2022-10-17T05:17:53;48789.56;;;-142.28;100.00
4149;BME280;2088;51.032;7.082;2022-10-17T05:20:21;48777.94;;;-142.28;100.00
4149;BME280;2088;51.032;7.082;2022-10-17T05:22:47;48779.88;;;-142.28;100.00
4149;BME280;2088;51.032;7.082;2022-10-17T05:25:14;48764.41;;;-142.28;100.00
4149;BME280;2088;51.032;7.082;2022-10-17T05:27:40;48779.88;;;-142.28;100.00
4149;BME280;2088;51.032;7.082;2022-10-17T05:30:08;48764.41;;;-142.28;100.00
4149;BME280;2088;51.032;7.082;2022-10-17T05:32:35;48768.28;;;-142.28;100.00
4149;BME280;2088;51.032;7.082;2022-10-17T05:35:02;48760.53;;;-142.28;100.00
4149;BME280;2088;51.032;7.082;2022-10-17T05:37:30;48781.81;;;-142.28;100.00
4149;BME280;2088;51.032;7.082;2022-10-17T05:39:56;48748.91;;;-142.28;100.00
4149;BME280;2088;51.032;7.082;2022-10-17T05:42:23;48766.34;;;-142.28;100.00
4149;BME280;2088;51.032;7.082;2022-10-17T05:44:49;48764.41;;;-142.28;100.00
4149;BME280;2088;51.032;7.082;2022-10-17T05:47:16;48762.47;;;-142.28;100.00
4149;BME280;2088;51.032;7.082;2022-10-17T05:49:43;48748.91;;;-142.28;100.00
4149;BME280;2088;51.032;7.082;2022-10-17T05:52:09;48756.66;;;-142.28;100.00
4149;BME280;2088;51.032;7.082;2022-10-17T05:54:37;48741.19;;;-142.28;100.00
4149;BME280;2088;51.032;7.082;2022-10-17T05:57:03;48752.78;;;-142.28;100.00
4149;BME280;2088;51.032;7.082;2022-10-17T05:59:30;48762.47;;;-142.28;100.00
4149;BME280;2088;51.032;7.082;2022-10-17T06:01:56;48714.06;;;-142.28;100.00
4149;BME280;2088;51.032;7.082;2022-10-17T06:04:22;48725.69;;;-142.28;100.00
4149;BME280;2088;51.032;7.082;2022-10-17T06:06:52;48714.06;;;-142.28;100.00
4149;BME280;2088;51.032;7.082;2022-10-17T06:09:20;48723.75;;;-142.28;100.00
4149;BME280;2088;51.032;7.082;2022-10-17T06:11:48;48708.28;;;-142.28;99.69
4149;BME280;2088;51.032;7.082;2022-10-17T06:14:15;48710.19;;;-142.28;100.00
4149;BME280;2088;51.032;7.082;2022-10-17T06:16:41;48725.69;;;-142.28;100.00
4149;BME280;2088;51.032;7.082;2022-10-17T06:19:08;48737.31;;;-142.28;99.96
4149;BME280;2088;51.032;7.082;2022-10-17T06:21:35;48729.56;;;-142.28;100.00
4149;BME280;2088;51.032;7.082;2022-10-17T06:24:03;48727.63;;;-142.28;99.93
4149;BME280;2088;51.032;7.082;2022-10-17T06:26:29;48729.56;;;-142.28;99.83
4149;BME280;2088;51.032;7.082;2022-10-17T06:28:57;48708.28;;;-142.28;99.89
4149;BME280;2088;51.032;7.082;2022-10-17T06:31:23;48710.19;;;-142.28;99.53
4149;BME280;2088;51.032;7.082;2022-10-17T06:33:50;48725.69;;;-142.28;99.32
4149;BME280;2088;51.032;7.082;2022-10-17T06:36:16;48714.06;;;-142.28;99.40
4149;BME280;2088;51.032;7.082;2022-10-17T06:38:43;48706.34;;;-142.28;99.23
4149;BME280;2088;51.032;7.082;2022-10-17T06:41:12;48686.97;;;-142.28;98.97
4149;BME280;2088;51.032;7.082;2022-10-17T06:43:40;48704.41;;;-142.28;98.47
4149;BME280;2088;51.032;7.082;2022-10-17T06:46:12;48702.47;;;-142.28;98.05
4149;BME280;2088;51.032;7.082;2022-10-17T06:48:38;48683.09;;;-142.28;97.87
4149;BME280;2088;51.032;7.082;2022-10-17T06:51:06;48675.38;;;-142.28;96.98
4149;BME280;2088;51.032;7.082;2022-10-17T06:53:34;48675.38;;;-142.28;96.71
4149;BME280;2088;51.032;7.082;2022-10-17T06:56:01;48677.31;;;-142.28;96.97
4149;BME280;2088;51.032;7.082;2022-10-17T06:58:29;48688.91;;;-142.28;96.90
4149;BME280;2088;51.032;7.082;2022-10-17T07:00:59;48646.34;;;-142.28;97.06
4149;BME280;2088;51.032;7.082;2022-10-17T07:03:28;48673.44;;;-142.28;96.97
4149;BME280;2088;51.032;7.082;2022-10-17T07:05:55;48652.13;;;-142.28;96.64
4149;BME280;2088;51.032;7.082;2022-10-17T07:08:21;48642.47;;;-142.28;96.19
4149;BME280;2088;51.032;7.082;2022-10-17T07:10:48;48642.47;;;-142.28;95.54
4149;BME280;2088;51.032;7.082;2022-10-17T07:13:15;48642.47;;;-142.28;95.19
4149;BME280;2088;51.032;7.082;2022-10-17T07:15:42;48621.16;;;-142.28;94.28
4149;BME280;2088;51.032;7.082;2022-10-17T07:18:09;48596.00;;;-142.28;93.79
4149;BME280;2088;51.032;7.082;2022-10-17T07:20:37;48609.56;;;-142.28;94.19
4149;BME280;2088;51.032;7.082;2022-10-17T07:23:04;48599.88;;;-142.28;93.85
4149;BME280;2088;51.032;7.082;2022-10-17T07:25:31;48578.59;;;-142.28;93.31
4149;BME280;2088;51.032;7.082;2022-10-17T07:27:58;48574.72;;;-142.28;92.84
4149;BME280;2088;51.032;7.082;2022-10-17T07:30:24;48574.72;;;-142.28;92.74
4149;BME280;2088;51.032;7.082;2022-10-17T07:32:51;48594.06;;;-142.28;92.23
4149;BME280;2088;51.032;7.082;2022-10-17T07:35:18;48563.09;;;-142.28;92.08
4149;BME280;2088;51.032;7.082;2022-10-17T07:37:46;48541.81;;;-142.28;91.94
4149;BME280;2088;51.032;7.082;2022-10-17T07:40:13;48543.75;;;-142.28;91.71
4149;BME280;2088;51.032;7.082;2022-10-17T07:42:39;48543.75;;;-142.28;91.43
4149;BME280;2088;51.032;7.082;2022-10-17T07:45:07;48506.97;;;-142.28;90.85
4149;BME280;2088;51.032;7.082;2022-10-17T07:47:33;48539.88;;;-142.28;91.14
4149;BME280;2088;51.032;7.082;2022-10-17T07:50:00;48559.25;;;-142.28;91.20
4149;BME280;2088;51.032;7.082;2022-10-17T07:52:26;48505.03;;;-142.28;90.81
4149;BME280;2088;51.032;7.082;2022-10-17T07:54:54;48532.13;;;-142.28;90.93
4149;BME280;2088;51.032;7.082;2022-10-17T07:57:21;48530.22;;;-142.28;90.22
4149;BME280;2088;51.032;7.082;2022-10-17T07:59:47;48516.66;;;-142.28;89.89
4149;BME280;2088;51.032;7.082;2022-10-17T08:02:20;48501.16;;;-142.28;89.57
4149;BME280;2088;51.032;7.082;2022-10-17T08:04:47;48501.16;;;-142.28;89.46
4149;BME280;2088;51.032;7.082;2022-10-17T08:07:14;48485.69;;;-142.28;89.31
4149;BME280;2088;51.032;7.082;2022-10-17T08:09:41;48497.31;;;-142.28;89.03
4149;BME280;2088;51.032;7.082;2022-10-17T08:12:09;48481.81;;;-142.28;88.46
4149;BME280;2088;51.032;7.082;2022-10-17T08:14:35;48481.81;;;-142.28;87.93
4149;BME280;2088;51.032;7.082;2022-10-17T08:17:03;48476.00;;;-142.28;88.29
4149;BME280;2088;51.032;7.082;2022-10-17T08:19:29;48462.47;;;-142.28;88.37
4149;BME280;2088;51.032;7.082;2022-10-17T08:21:56;48466.34;;;-142.28;87.40
4149;BME280;2088;51.032;7.082;2022-10-17T08:24:23;48462.47;;;-142.28;87.19
4149;BME280;2088;51.032;7.082;2022-10-17T08:26:49;48452.78;;;-142.28;86.73
4149;BME280;2088;51.032;7.082;2022-10-17T08:29:18;48431.50;;;-142.28;87.38
4149;BME280;2088;51.032;7.082;2022-10-17T08:31:45;48433.44;;;-142.28;87.32
4149;BME280;2088;51.032;7.082;2022-10-17T08:34:11;48439.25;;;-142.28;86.98
4149;BME280;2088;51.032;7.082;2022-10-17T08:36:38;48425.69;;;-142.28;86.42
4149;BME280;2088;51.032;7.082;2022-10-17T08:39:04;48416.00;;;-142.28;86.67
4149;BME280;2088;51.032;7.082;2022-10-17T08:41:47;48431.50;;;-142.28;86.14
4149;BME280;2088;51.032;7.082;2022-10-17T08:44:26;48431.50;;;-142.28;86.86
4149;BME280;2088;51.032;7.082;2022-10-17T08:46:58;48406.34;;;-142.28;85.85
4149;BME280;2088;51.032;7.082;2022-10-17T08:49:35;48435.38;;;-142.28;86.11
4149;BME280;2088;51.032;7.082;2022-10-17T08:52:06;48412.16;;;-142.28;84.97
4149;BME280;2088;51.032;7.082;2022-10-17T08:54:39;48394.72;;;-142.28;85.09
4149;BME280;2088;51.032;7.082;2022-10-17T08:57:10;48379.25;;;-142.28;83.85
4149;BME280;2088;51.032;7.082;2022-10-17T08:59:38;48371.50;;;-142.28;83.73
4149;BME280;2088;51.032;7.082;2022-10-17T09:02:20;48359.88;;;-142.28;83.03
4149;BME280;2088;51.032;7.082;2022-10-17T09:05:07;48354.09;;;-142.28;82.17
4149;BME280;2088;51.032;7.082;2022-10-17T09:07:45;48334.72;;;-142.28;81.94
4149;BME280;2088;51.032;7.082;2022-10-17T09:10:20;48350.22;;;-142.28;81.88
4149;BME280;2088;51.032;7.082;2022-10-17T09:13:01;48357.97;;;-142.28;81.25
4149;BME280;2088;51.032;7.082;2022-10-17T09:15:42;48328.94;;;-142.28;80.59
4149;BME280;2088;51.032;7.082;2022-10-17T09:18:14;48357.97;;;-142.28;80.79
4149;BME280;2088;51.032;7.082;2022-10-17T09:20:45;48309.56;;;-142.28;80.99
4149;BME280;2088;51.032;7.082;2022-10-17T09:23:15;48313.44;;;-142.28;80.48
4149;BME280;2088;51.032;7.082;2022-10-17T09:25:44;48321.19;;;-142.28;80.39
4149;BME280;2088;51.032;7.082;2022-10-17T09:28:15;48327.00;;;-142.28;80.99
4149;BME280;2088;51.032;7.082;2022-10-17T09:30:45;48328.94;;;-142.28;80.64
4149;BME280;2088;51.032;7.082;2022-10-17T09:33:13;48332.78;;;-142.28;80.69
4149;BME280;2088;51.032;7.082;2022-10-17T09:35:41;48327.00;;;-142.28;82.13
4149;BME280;2088;51.032;7.082;2022-10-17T09:38:14;48296.03;;;-142.28;80.59
4149;BME280;2088;51.032;7.082;2022-10-17T09:40:42;48340.53;;;-142.28;81.32
4149;BME280;2088;51.032;7.082;2022-10-17T09:43:11;48313.44;;;-142.28;81.11
4149;BME280;2088;51.032;7.082;2022-10-17T09:45:41;48334.72;;;-142.28;81.62
4149;BME280;2088;51.032;7.082;2022-10-17T09:48:19;48297.97;;;-142.28;81.13
4149;BME280;2088;51.032;7.082;2022-10-17T09:50:49;48299.91;;;-142.28;80.56
4149;BME280;2088;51.032;7.082;2022-10-17T09:53:20;48296.03;;;-142.28;80.85
4149;BME280;2088;51.032;7.082;2022-10-17T09:55:49;48305.69;;;-142.28;81.56
4149;BME280;2088;51.032;7.082;2022-10-17T09:58:16;48294.09;;;-142.28;81.90
4149;BME280;2088;51.032;7.082;2022-10-17T10:00:44;48284.41;;;-142.28;81.74
4149;BME280;2088;51.032;7.082;2022-10-17T10:03:16;48297.97;;;-142.28;81.99
4149;BME280;2088;51.032;7.082;2022-10-17T10:05:57;48315.38;;;-142.28;82.14
4149;BME280;2088;51.032;7.082;2022-10-17T10:08:27;48299.91;;;-142.28;80.65
4149;BME280;2088;51.032;7.082;2022-10-17T10:10:57;48309.56;;;-142.28;80.12
4149;BME280;2088;51.032;7.082;2022-10-17T10:13:26;48276.66;;;-142.28;80.43
4149;BME280;2088;51.032;7.082;2022-10-17T10:15:52;48294.09;;;-142.28;80.53
4149;BME280;2088;51.032;7.082;2022-10-17T10:18:30;48294.09;;;-142.28;79.48
4149;BME280;2088;51.032;7.082;2022-10-17T10:21:04;48272.81;;;-142.28;78.94
4149;BME280;2088;51.032;7.082;2022-10-17T10:23:31;48274.75;;;-142.28;78.64
4149;BME280;2088;51.032;7.082;2022-10-17T10:26:00;48267.00;;;-142.28;77.63
4149;BME280;2088;51.032;7.082;2022-10-17T10:28:30;48268.94;;;-142.28;78.29
4149;BME280;2088;51.032;7.082;2022-10-17T10:30:58;48265.06;;;-142.28;78.35
4149;BME280;2088;51.032;7.082;2022-10-17T10:33:28;48282.47;;;-142.28;78.92
4149;BME280;2088;51.032;7.082;2022-10-17T10:35:57;48259.25;;;-142.28;79.16
4149;BME280;2088;51.032;7.082;2022-10-17T10:38:25;48268.94;;;-142.28;79.46
4149;BME280;2088;51.032;7.082;2022-10-17T10:40:54;48267.00;;;-142.28;79.03
4149;BME280;2088;51.032;7.082;2022-10-17T10:43:31;48276.66;;;-142.28;78.47
4149;BME280;2088;51.032;7.082;2022-10-17T10:45:59;48296.03;;;-142.28;78.85
4149;BME280;2088;51.032;7.082;2022-10-17T10:48:29;48280.53;;;-142.28;78.56
4149;BME280;2088;51.032;7.082;2022-10-17T10:51:03;48265.06;;;-142.28;78.24
4149;BME280;2088;51.032;7.082;2022-10-17T10:53:44;48272.81;;;-142.28;78.98
4149;BME280;2088;51.032;7.082;2022-10-17T10:56:17;48222.47;;;-142.28;79.28
4149;BME280;2088;51.032;7.082;2022-10-17T10:58:52;48263.13;;;-142.28;79.45
4149;BME280;2088;51.032;7.082;2022-10-17T11:01:26;48259.25;;;-142.28;79.46
4149;BME280;2088;51.032;7.082;2022-10-17T11:04:14;48255.38;;;-142.28;80.14
4149;BME280;2088;51.032;7.082;2022-10-17T11:06:44;48249.59;;;-142.28;79.64
4149;BME280;2088;51.032;7.082;2022-10-17T11:09:17;48268.94;;;-142.28;79.25
4149;BME280;2088;51.032;7.082;2022-10-17T11:11:53;48261.19;;;-142.28;79.11
4149;BME280;2088;51.032;7.082;2022-10-17T11:14:31;48267.00;;;-142.28;79.38
4149;BME280;2088;51.032;7.082;2022-10-17T11:17:04;48265.06;;;-142.28;80.24
4149;BME280;2088;51.032;7.082;2022-10-17T11:19:36;48263.13;;;-142.28;81.11
4149;BME280;2088;51.032;7.082;2022-10-17T11:22:10;48268.94;;;-142.28;82.10
4149;BME280;2088;51.032;7.082;2022-10-17T11:24:41;48263.13;;;-142.28;81.81
4149;BME280;2088;51.032;7.082;2022-10-17T11:27:08;48288.28;;;-142.28;81.61
4149;BME280;2088;51.032;7.082;2022-10-17T11:29:37;48272.81;;;-142.28;82.01
4149;BME280;2088;51.032;7.082;2022-10-17T11:32:08;48268.94;;;-142.28;82.27
4149;BME280;2088;51.032;7.082;2022-10-17T11:34:40;48253.44;;;-142.28;82.58
4149;BME280;2088;51.032;7.082;2022-10-17T11:37:15;48253.44;;;-142.28;82.56
4149;BME280;2088;51.032;7.082;2022-10-17T11:39:44;48257.31;;;-142.28;82.01
4149;BME280;2088;51.032;7.082;2022-10-17T11:42:18;48247.66;;;-142.28;81.70
4149;BME280;2088;51.032;7.082;2022-10-17T11:44:47;48274.75;;;-142.28;81.53
4149;BME280;2088;51.032;7.082;2022-10-17T11:47:25;48282.47;;;-142.28;81.48
4149;BME280;2088;51.032;7.082;2022-10-17T11:50:01;48245.72;;;-142.28;80.77
4149;BME280;2088;51.032;7.082;2022-10-17T11:52:34;48257.31;;;-142.28;80.52
4149;BME280;2088;51.032;7.082;2022-10-17T11:55:09;48263.13;;;-142.28;80.98
4149;BME280;2088;51.032;7.082;2022-10-17T11:57:49;48237.97;;;-142.28;82.07
4149;BME280;2088;51.032;7.082;2022-10-17T12:00:23;48270.88;;;-142.28;82.48
4149;BME280;2088;51.032;7.082;2022-10-17T12:02:56;48222.47;;;-142.28;82.25
4149;BME280;2088;51.032;7.082;2022-10-17T12:05:32;48249.59;;;-142.28;82.07
4149;BME280;2088;51.032;7.082;2022-10-17T12:08:08;48296.03;;;-142.28;81.85
4149;BME280;2088;51.032;7.082;2022-10-17T12:10:44;48245.72;;;-142.28;81.15
4149;BME280;2088;51.032;7.082;2022-10-17T12:13:45;48247.66;;;-142.28;81.17
4149;BME280;2088;51.032;7.082;2022-10-17T12:19:36;48261.19;;;-142.28;81.08
4149;BME280;2088;51.032;7.082;2022-10-17T12:22:20;48245.72;;;-142.28;80.65
4149;BME280;2088;51.032;7.082;2022-10-17T12:24:55;48259.25;;;-142.28;81.93
4149;BME280;2088;51.032;7.082;2022-10-17T12:27:37;48257.31;;;-142.28;82.01
4149;BME280;2088;51.032;7.082;2022-10-17T12:30:13;48276.66;;;-142.28;82.49
4149;BME280;2088;51.032;7.082;2022-10-17T12:32:57;48261.19;;;-142.28;83.41
4149;BME280;2088;51.032;7.082;2022-10-17T12:35:25;48270.88;;;-142.28;83.87
4149;BME280;2088;51.032;7.082;2022-10-17T12:38:24;48267.00;;;-142.28;84.09
4149;BME280;2088;51.032;7.082;2022-10-17T12:40:53;48263.13;;;-142.28;84.40
4149;BME280;2088;51.032;7.082;2022-10-17T12:46:42;48265.06;;;-142.28;84.30
4149;BME280;2088;51.032;7.082;2022-10-17T12:52:18;48261.19;;;-142.28;84.66
4149;BME280;2088;51.032;7.082;2022-10-17T12:54:50;48276.66;;;-142.28;85.64
4149;BME280;2088;51.032;7.082;2022-10-17T12:57:21;48268.94;;;-142.28;85.56
4149;BME280;2088;51.032;7.082;2022-10-17T12:59:49;48292.16;;;-142.28;85.85
4149;BME280;2088;51.032;7.082;2022-10-17T13:02:19;48276.66;;;-142.28;85.57
4149;BME280;2088;51.032;7.082;2022-10-17T13:04:47;48296.03;;;-142.28;85.38
4149;BME280;2088;51.032;7.082;2022-10-17T13:07:18;48261.19;;;-142.28;85.49
4149;BME280;2088;51.032;7.082;2022-10-17T13:09:48;48284.41;;;-142.28;85.19
4149;BME280;2088;51.032;7.082;2022-10-17T13:12:20;48247.66;;;-142.28;85.11
4149;BME280;2088;51.032;7.082;2022-10-17T13:14:49;48280.53;;;-142.28;85.17
4149;BME280;2088;51.032;7.082;2022-10-17T13:17:22;48274.75;;;-142.28;85.15
4149;BME280;2088;51.032;7.082;2022-10-17T13:19:49;48265.06;;;-142.28;84.96
4149;BME280;2088;51.032;7.082;2022-10-17T13:22:17;48274.75;;;-142.28;85.48